createdAt,value
2018-02-10T00:01:23.118Z,75.24
2018-02-10T00:03:51.560Z,76.18
2018-02-10T00:06:20.115Z,75.55
2018-02-10T00:08:48.460Z,76.83
2018-02-10T00:11:16.874Z,77.25
2018-02-10T00:13:45.321Z,77.63
2018-02-10T00:16:13.693Z,77.46
2018-02-10T00:18:41.999Z,77.02
2018-02-10T00:21:10.315Z,77.51
2018-02-10T00:23:38.646Z,76.38
2018-02-10T00:26:07.046Z,76.75
2018-02-10T00:28:35.371Z,75.81
2018-02-10T00:31:03.707Z,75.71
2018-02-10T00:33:32.053Z,76.46
2018-02-10T00:36:00.425Z,76.70
2018-02-10T00:38:28.970Z,76.80
2018-02-10T00:40:57.351Z,76.64
2018-02-10T00:43:27.457Z,77.15
2018-02-10T00:45:57.373Z,77.23
2018-02-10T00:48:25.669Z,76.33
2018-02-10T00:50:54.013Z,78.49
2018-02-10T00:53:22.361Z,78.92
2018-02-10T00:55:50.686Z,79.36
2018-02-10T00:58:19.246Z,79.51
2018-02-10T01:00:47.598Z,78.95
2018-02-10T01:03:15.886Z,78.61
2018-02-10T01:05:44.349Z,78.29
2018-02-10T01:08:12.690Z,78.24
2018-02-10T01:10:41.121Z,78.03
2018-02-10T01:13:09.439Z,78.89
2018-02-10T01:15:37.894Z,78.43
2018-02-10T01:19:09.275Z,79.64
2018-02-10T01:21:37.636Z,80.00
2018-02-10T01:24:05.965Z,79.94
2018-02-10T01:26:34.310Z,78.75
2018-02-10T01:29:02.710Z,77.96
2018-02-10T01:31:31.062Z,78.59
2018-02-10T01:33:59.395Z,79.65
2018-02-10T01:36:27.843Z,78.33
2018-02-10T01:38:56.229Z,77.67
2018-02-10T01:41:24.998Z,78.73
2018-02-10T01:43:53.287Z,78.83
2018-02-10T01:46:21.646Z,78.84
2018-02-10T01:48:49.950Z,79.23
2018-02-10T01:51:18.327Z,79.51
2018-02-10T01:53:46.729Z,79.90
2018-02-10T01:56:15.223Z,79.98
2018-02-10T01:58:43.682Z,79.99
2018-02-10T02:01:12.004Z,78.54
2018-02-10T02:03:40.539Z,78.90
2018-02-10T02:06:08.940Z,78.59
2018-02-10T02:08:37.398Z,79.09
2018-02-10T02:11:05.758Z,80.00
2018-02-10T02:13:34.055Z,80.08
2018-02-10T02:16:02.383Z,80.55
2018-02-10T02:18:30.777Z,80.08
2018-02-10T02:20:59.452Z,80.45
2018-02-10T02:23:27.778Z,79.45
2018-02-10T02:25:56.204Z,80.29
2018-02-10T02:28:24.610Z,80.24
2018-02-10T02:30:53.056Z,80.61
2018-02-10T02:33:21.507Z,81.15
2018-02-10T02:35:49.837Z,81.34
2018-02-10T02:38:18.318Z,80.69
2018-02-10T02:40:46.963Z,81.60
2018-02-10T02:43:15.323Z,80.47
2018-02-10T02:45:43.674Z,80.55
2018-02-10T02:48:12.213Z,81.89
2018-02-10T02:50:40.535Z,81.37
2018-02-10T02:53:08.925Z,82.02
2018-02-10T02:55:37.256Z,81.58
2018-02-10T02:58:05.600Z,81.43
2018-02-10T03:00:33.906Z,81.04
2018-02-10T03:03:02.203Z,80.93
2018-02-10T03:05:30.672Z,80.57
2018-02-10T03:07:58.994Z,80.95
2018-02-10T03:10:27.314Z,81.12
2018-02-10T03:12:55.636Z,81.68
2018-02-10T03:15:24.806Z,81.43
2018-02-10T03:17:54.319Z,82.07
2018-02-10T03:20:22.700Z,81.81
2018-02-10T03:22:51.105Z,82.01
2018-02-10T03:25:19.419Z,80.91
2018-02-10T03:27:47.751Z,80.44
2018-02-10T03:30:18.256Z,79.40
2018-02-10T03:32:47.760Z,80.34
2018-02-10T03:35:17.561Z,79.27
2018-02-10T03:37:46.005Z,81.44
2018-02-10T03:40:14.377Z,81.02
2018-02-10T03:42:42.786Z,79.88
2018-02-10T03:45:11.152Z,80.38
2018-02-10T03:47:39.439Z,80.47
2018-02-10T03:50:07.790Z,80.62
2018-02-10T03:52:36.235Z,80.74
2018-02-10T03:55:04.626Z,81.57
2018-02-10T03:57:32.975Z,81.98
2018-02-10T04:00:01.229Z,81.74
2018-02-10T04:02:29.575Z,82.58
2018-02-10T04:04:58.022Z,82.37
2018-02-10T04:07:26.538Z,81.68
2018-02-10T04:09:54.814Z,82.24
2018-02-10T04:12:23.231Z,82.22
2018-02-10T04:14:51.808Z,81.77
2018-02-10T04:17:20.269Z,81.72
2018-02-10T04:19:48.551Z,80.69
2018-02-10T04:22:16.910Z,81.08
2018-02-10T04:24:45.219Z,81.54
2018-02-10T04:27:13.617Z,80.74
2018-02-10T04:29:42.034Z,80.69
2018-02-10T04:32:10.430Z,81.05
2018-02-10T04:34:38.711Z,81.48
2018-02-10T04:37:07.082Z,82.04
2018-02-10T04:39:35.446Z,81.76
2018-02-10T04:42:03.779Z,81.51
2018-02-10T04:44:32.102Z,82.79
2018-02-10T04:47:00.416Z,82.59
2018-02-10T04:49:28.686Z,82.42
2018-02-10T04:51:57.146Z,82.30
2018-02-10T04:54:26.224Z,82.10
2018-02-10T04:56:54.603Z,81.86
2018-02-10T04:59:22.906Z,81.25
2018-02-10T05:07:42.442Z,81.84
2018-02-10T05:10:11.007Z,81.29
2018-02-10T05:12:39.569Z,80.83
2018-02-10T05:15:08.292Z,80.83
2018-02-10T05:17:36.991Z,80.90
2018-02-10T05:20:07.183Z,81.17
2018-02-10T05:22:35.701Z,81.47
2018-02-10T05:25:04.432Z,81.88
2018-02-10T05:27:33.334Z,80.80
2018-02-10T05:30:02.002Z,81.40
2018-02-10T05:32:30.873Z,81.87
2018-02-10T05:34:59.561Z,82.36
2018-02-10T05:37:28.156Z,81.76
2018-02-10T05:39:56.639Z,82.22
2018-02-10T05:42:25.552Z,82.48
2018-02-10T05:44:54.044Z,83.39
2018-02-10T05:47:22.579Z,83.61
2018-02-10T05:49:51.356Z,82.81
2018-02-10T05:52:19.973Z,83.21
2018-02-10T05:54:48.895Z,83.09
2018-02-10T05:57:18.161Z,82.16
2018-02-10T05:59:47.115Z,81.29
2018-02-10T06:02:16.188Z,81.54
2018-02-10T06:04:44.696Z,83.08
2018-02-10T06:07:13.348Z,82.58
2018-02-10T06:09:42.704Z,81.93
2018-02-10T06:12:11.515Z,82.21
2018-02-10T06:14:41.022Z,83.12
2018-02-10T06:17:09.768Z,81.90
2018-02-10T06:19:40.464Z,81.36
2018-02-10T06:22:10.896Z,81.83
2018-02-10T06:24:40.404Z,82.17
2018-02-10T06:27:09.781Z,81.59
2018-02-10T06:29:38.364Z,81.87
2018-02-10T06:32:07.715Z,81.82
2018-02-10T06:34:42.817Z,83.04
2018-02-10T06:37:17.935Z,82.06
2018-02-10T06:39:46.794Z,82.58
2018-02-10T06:42:15.357Z,82.11
2018-02-10T06:44:43.997Z,82.28
2018-02-10T06:47:12.609Z,81.30
2018-02-10T06:49:41.215Z,81.13
2018-02-10T06:52:09.704Z,81.80
2018-02-10T06:54:38.389Z,83.17
2018-02-10T06:57:07.311Z,82.82
2018-02-10T06:59:35.979Z,82.86
2018-02-10T07:08:52.223Z,83.29
2018-02-10T07:11:20.991Z,82.84
2018-02-10T07:13:49.815Z,82.40
2018-02-10T07:16:18.402Z,83.73
2018-02-10T07:18:47.532Z,81.95
2018-02-10T07:21:16.110Z,82.41
2018-02-10T07:23:44.564Z,82.77
2018-02-10T07:26:13.231Z,82.96
2018-02-10T07:28:41.809Z,81.55
2018-02-10T07:31:10.404Z,81.14
2018-02-10T07:33:39.260Z,81.80
2018-02-10T07:36:07.779Z,81.08
2018-02-10T07:38:36.288Z,82.27
2018-02-10T07:41:04.848Z,81.69
2018-02-10T07:43:33.433Z,82.51
2018-02-10T07:46:02.300Z,81.98
2018-02-10T07:48:31.168Z,81.35
2018-02-10T07:50:59.919Z,81.08
2018-02-10T07:53:28.487Z,81.79
2018-02-10T07:55:56.988Z,82.96
2018-02-10T07:58:25.548Z,82.84
2018-02-10T08:00:54.080Z,83.09
2018-02-10T08:03:22.864Z,81.99
2018-02-10T08:05:51.365Z,82.48
2018-02-10T08:08:20.097Z,80.93
2018-02-10T08:10:48.636Z,80.33
2018-02-10T08:13:17.223Z,81.15
2018-02-10T08:15:45.958Z,80.88
2018-02-10T08:18:14.521Z,81.14
2018-02-10T08:20:43.117Z,81.04
2018-02-10T08:23:11.637Z,80.91
2018-02-10T08:25:40.248Z,80.73
2018-02-10T08:28:08.916Z,81.10
2018-02-10T08:30:37.420Z,80.55
2018-02-10T08:33:06.276Z,81.00
2018-02-10T08:35:34.804Z,81.19
2018-02-10T08:38:03.509Z,81.53
2018-02-10T08:40:32.154Z,80.93
2018-02-10T08:43:00.722Z,81.04
2018-02-10T08:45:29.523Z,81.08
2018-02-10T08:47:57.993Z,81.18
2018-02-10T08:50:26.708Z,81.10
2018-02-10T08:52:55.338Z,81.29
2018-02-10T08:55:23.889Z,81.00
2018-02-10T08:57:52.502Z,81.19
2018-02-10T09:00:21.224Z,81.04
2018-02-10T09:02:49.903Z,80.78
2018-02-10T09:05:18.606Z,80.57
2018-02-10T09:07:47.454Z,80.96
2018-02-10T09:10:15.968Z,80.63
2018-02-10T09:12:44.555Z,80.35
2018-02-10T09:15:13.093Z,80.59
2018-02-10T09:17:43.855Z,80.21
2018-02-10T09:20:13.347Z,80.03
2018-02-10T09:22:42.023Z,79.61
2018-02-10T09:25:11.679Z,79.59
2018-02-10T09:27:40.384Z,79.54
2018-02-10T09:30:08.923Z,79.28
2018-02-10T09:32:37.646Z,79.22
2018-02-10T09:35:06.308Z,78.58
2018-02-10T09:37:34.972Z,78.79
2018-02-10T09:40:03.784Z,78.67
2018-02-10T09:42:32.350Z,78.35
2018-02-10T09:45:01.069Z,78.54
2018-02-10T09:47:29.762Z,78.69
2018-02-10T09:49:58.399Z,79.04
2018-02-10T09:52:26.912Z,78.96
2018-02-10T09:54:55.643Z,79.63
2018-02-10T09:57:24.284Z,79.21
2018-02-10T09:59:52.792Z,79.28
2018-02-10T10:02:21.500Z,78.91
2018-02-10T10:04:50.040Z,79.17
2018-02-10T10:07:18.604Z,79.49
2018-02-10T10:09:47.205Z,79.14
2018-02-10T10:12:15.778Z,79.26
2018-02-10T10:14:45.468Z,78.51
2018-02-10T10:17:13.984Z,78.48
2018-02-10T10:19:42.500Z,78.53
2018-02-10T10:22:11.016Z,78.40
2018-02-10T10:24:39.564Z,78.18
2018-02-10T10:27:08.127Z,78.04
2018-02-10T10:29:36.944Z,78.08
2018-02-10T10:32:05.664Z,78.37
2018-02-10T10:34:34.124Z,77.72
2018-02-10T10:37:02.735Z,77.45
2018-02-10T10:39:31.280Z,77.54
2018-02-10T10:42:06.688Z,77.29
2018-02-10T10:44:35.268Z,76.60
2018-02-10T10:47:03.929Z,76.84
2018-02-10T10:49:32.811Z,76.85
2018-02-10T10:52:01.497Z,76.48
2018-02-10T10:54:30.244Z,76.49
2018-02-10T10:56:59.280Z,76.24
2018-02-10T10:59:27.833Z,75.91
2018-02-10T11:01:57.846Z,75.21
2018-02-10T11:04:26.481Z,74.70
2018-02-10T11:06:55.016Z,74.49
2018-02-10T11:09:24.431Z,74.77
2018-02-10T11:11:52.936Z,74.60
2018-02-10T11:14:21.500Z,74.15
2018-02-10T11:16:50.202Z,74.10
2018-02-10T11:19:19.151Z,73.55
2018-02-10T11:21:47.782Z,73.06
2018-02-10T11:24:16.285Z,72.32
2018-02-10T11:26:44.961Z,71.17
2018-02-10T11:29:13.444Z,70.68
2018-02-10T11:31:42.129Z,69.60
2018-02-10T11:34:10.616Z,68.71
2018-02-10T11:36:39.144Z,68.91
2018-02-10T11:39:07.979Z,68.61
2018-02-10T11:41:36.702Z,67.04
2018-02-10T11:44:05.197Z,66.54
2018-02-10T11:46:34.023Z,64.08
2018-02-10T11:49:02.557Z,65.09
2018-02-10T11:51:31.084Z,63.81
2018-02-10T11:54:00.491Z,63.67
2018-02-10T11:56:29.181Z,60.96
2018-02-10T11:58:58.071Z,63.39
2018-02-10T12:01:26.979Z,61.59
2018-02-10T12:03:55.588Z,54.43
2018-02-10T12:06:24.324Z,55.48
2018-02-10T12:08:52.972Z,56.60
2018-02-10T12:11:21.693Z,51.59
2018-02-10T12:13:50.216Z,56.70
2018-02-10T12:16:18.944Z,55.91
2018-02-10T12:18:47.411Z,54.17
2018-02-10T12:21:16.028Z,53.83
2018-02-10T12:23:44.695Z,57.31
2018-02-10T12:26:13.398Z,58.32
2018-02-10T12:28:42.049Z,60.13
2018-02-10T12:31:10.564Z,60.28
2018-02-10T12:33:39.207Z,60.00
2018-02-10T12:36:07.754Z,58.09
2018-02-10T12:38:36.444Z,58.06
2018-02-10T12:41:05.325Z,55.54
2018-02-10T12:43:33.924Z,56.82
2018-02-10T12:46:02.441Z,58.29
2018-02-10T12:48:36.365Z,54.96
2018-02-10T12:51:05.383Z,57.28
2018-02-10T12:53:34.597Z,59.11
2018-02-10T12:56:03.379Z,56.59
2018-02-10T12:58:32.308Z,56.57
2018-02-10T13:01:00.853Z,58.01
2018-02-10T13:03:29.623Z,59.24
2018-02-10T13:05:58.513Z,61.63
2018-02-10T13:08:27.442Z,61.53
2018-02-10T13:10:56.236Z,63.73
2018-02-10T13:13:25.153Z,65.24
2018-02-10T13:15:53.674Z,65.45
2018-02-10T13:18:22.196Z,65.06
2018-02-10T13:20:50.708Z,65.02
2018-02-10T13:23:19.503Z,65.07
2018-02-10T13:25:48.067Z,65.87
2018-02-10T13:28:17.132Z,65.38
2018-02-10T13:30:45.784Z,65.54
2018-02-10T13:33:14.673Z,65.26
2018-02-10T13:35:43.358Z,64.56
2018-02-10T13:38:11.893Z,61.68
2018-02-10T13:40:40.616Z,61.67
2018-02-10T13:43:09.189Z,62.56
2018-02-10T13:45:37.915Z,62.67
2018-02-10T13:48:06.972Z,62.04
2018-02-10T13:50:35.612Z,62.31
2018-02-10T13:53:04.116Z,61.90
2018-02-10T13:55:32.754Z,62.93
2018-02-10T13:58:01.600Z,63.28
2018-02-10T14:00:30.129Z,63.51
2018-02-10T14:02:58.601Z,63.73
2018-02-10T14:05:27.608Z,64.53
2018-02-10T14:07:56.301Z,64.02
2018-02-10T14:10:25.365Z,64.89
2018-02-10T14:12:54.401Z,65.46
2018-02-10T14:15:23.672Z,65.20
2018-02-10T14:17:52.981Z,65.05
2018-02-10T14:20:22.077Z,65.33
2018-02-10T14:22:50.911Z,65.61
2018-02-10T14:25:19.745Z,65.90
2018-02-10T14:27:48.232Z,66.15
2018-02-10T14:30:16.981Z,66.04
2018-02-10T14:32:45.704Z,65.77
2018-02-10T14:35:14.692Z,66.09
2018-02-10T14:37:43.280Z,66.29
2018-02-10T14:40:12.049Z,66.74
2018-02-10T14:42:40.890Z,66.76
2018-02-10T14:45:10.252Z,67.25
2018-02-10T14:47:38.755Z,67.68
2018-02-10T14:50:07.620Z,67.73
2018-02-10T14:52:36.810Z,67.70
2018-02-10T14:55:05.422Z,67.58
2018-02-10T14:57:34.133Z,68.02
2018-02-10T15:00:03.049Z,67.94
2018-02-10T15:02:32.508Z,68.19
2018-02-10T15:05:01.097Z,68.12
2018-02-10T15:07:31.680Z,68.76
2018-02-10T15:10:02.370Z,69.21
2018-02-10T15:12:32.720Z,69.06
2018-02-10T15:15:04.096Z,69.50
2018-02-10T15:17:32.762Z,69.61
2018-02-10T15:20:01.279Z,69.94
2018-02-10T15:22:29.890Z,70.13
2018-02-10T15:24:58.529Z,70.25
2018-02-10T15:27:27.992Z,70.30
2018-02-10T15:30:05.441Z,70.57
2018-02-10T15:32:45.165Z,70.77
2018-02-10T15:35:17.200Z,70.74
2018-02-10T15:37:45.683Z,71.36
2018-02-10T15:40:14.192Z,71.00
2018-02-10T15:42:42.728Z,71.26
2018-02-10T15:45:11.267Z,71.52
2018-02-10T15:47:39.845Z,71.25
2018-02-10T15:50:08.584Z,71.68
2018-02-10T15:52:39.040Z,71.71
2018-02-10T15:55:07.945Z,71.99
2018-02-10T15:57:36.460Z,72.31
2018-02-10T16:00:08.220Z,72.24
2018-02-10T16:02:36.813Z,72.21
2018-02-10T16:05:05.761Z,72.32
2018-02-10T16:07:34.226Z,72.84
2018-02-10T16:10:02.781Z,73.00
2018-02-10T16:12:31.359Z,72.97
2018-02-10T16:15:00.173Z,73.17
2018-02-10T16:17:28.873Z,72.91
2018-02-10T16:19:57.456Z,72.93
2018-02-10T16:22:26.248Z,73.31
2018-02-10T16:24:54.909Z,73.28
2018-02-10T16:27:23.613Z,73.39
2018-02-10T16:29:52.089Z,73.39
2018-02-10T16:32:20.884Z,73.47
2018-02-10T16:34:49.755Z,73.25
2018-02-10T16:37:18.308Z,72.87
2018-02-10T16:39:46.800Z,72.91
2018-02-10T16:42:15.318Z,73.06
2018-02-10T16:44:58.716Z,72.97
2018-02-10T16:47:27.449Z,72.69
2018-02-10T16:49:56.108Z,73.00
2018-02-10T16:52:24.944Z,73.17
2018-02-10T16:54:53.428Z,73.31
2018-02-10T16:57:22.101Z,73.30
2018-02-10T16:59:50.568Z,73.80
2018-02-10T17:02:19.142Z,73.75
2018-02-10T17:04:47.831Z,73.68
2018-02-10T17:07:16.380Z,73.75
2018-02-10T17:09:45.205Z,73.60
2018-02-10T17:12:13.884Z,73.75
2018-02-10T17:14:44.220Z,73.82
2018-02-10T17:17:12.960Z,73.60
2018-02-10T17:19:41.613Z,73.72
2018-02-10T17:22:10.312Z,73.98
2018-02-10T17:24:39.008Z,73.75
2018-02-10T17:27:07.529Z,73.94
2018-02-10T17:29:36.132Z,74.03
2018-02-10T17:32:04.684Z,73.82
2018-02-10T17:34:33.266Z,74.11
2018-02-10T17:37:01.985Z,74.13
2018-02-10T17:39:30.622Z,74.26
2018-02-10T17:41:59.537Z,74.60
2018-02-10T17:44:28.348Z,74.60
2018-02-10T17:46:56.948Z,74.68
2018-02-10T17:49:25.568Z,74.56
2018-02-10T17:51:54.156Z,74.66
2018-02-10T17:54:23.197Z,74.61
2018-02-10T17:56:51.880Z,74.72
2018-02-10T17:59:20.348Z,74.98
2018-02-10T18:01:49.064Z,75.16
2018-02-10T18:04:17.617Z,75.05
2018-02-10T18:06:46.204Z,75.08
2018-02-10T18:09:14.788Z,75.35
2018-02-10T18:11:43.318Z,75.36
2018-02-10T18:14:11.801Z,75.18
2018-02-10T18:16:40.349Z,75.37
2018-02-10T18:19:08.973Z,75.36
2018-02-10T18:21:37.707Z,75.80
2018-02-10T18:24:06.192Z,75.77
2018-02-10T18:26:34.820Z,76.14
2018-02-10T18:29:03.452Z,75.96
2018-02-10T18:31:32.040Z,76.35
2018-02-10T18:34:01.287Z,76.39
2018-02-10T18:36:31.784Z,76.51
2018-02-10T18:39:00.424Z,76.50
2018-02-10T18:41:29.339Z,76.73
2018-02-10T18:43:58.951Z,76.80
2018-02-10T18:46:29.192Z,76.87
2018-02-10T18:48:58.602Z,76.80
2018-02-10T18:51:27.740Z,76.93
2018-02-10T18:53:58.143Z,77.03
2018-02-10T18:56:28.124Z,77.05
2018-02-10T18:58:58.381Z,77.10
2018-02-10T19:01:28.184Z,77.17
2018-02-10T19:03:58.884Z,77.24
2018-02-10T19:06:27.404Z,77.39
2018-02-10T19:08:55.875Z,77.43
2018-02-10T19:11:27.638Z,77.48
2018-02-10T19:13:56.694Z,77.25
2018-02-10T19:16:26.625Z,77.35
2018-02-10T19:18:55.306Z,77.52
2018-02-10T19:21:24.194Z,77.38
2018-02-10T19:23:52.900Z,77.48
2018-02-10T19:26:21.613Z,77.63
2018-02-10T19:28:50.313Z,77.81
2018-02-10T19:31:19.444Z,77.54
2018-02-10T19:33:48.620Z,77.85
2018-02-10T19:36:17.564Z,78.02
2018-02-10T19:38:46.296Z,77.70
2018-02-10T19:41:14.980Z,77.95
2018-02-10T19:43:43.681Z,77.95
2018-02-10T19:46:12.421Z,77.95
2018-02-10T19:48:41.444Z,77.83
2018-02-10T19:51:10.074Z,78.12
2018-02-10T19:53:38.641Z,78.17
2018-02-10T19:56:07.160Z,77.97
2018-02-10T19:58:35.684Z,78.03
2018-02-10T20:01:04.175Z,78.12
2018-02-10T20:03:32.997Z,78.09
2018-02-10T20:06:05.409Z,78.05
2018-02-10T20:08:34.198Z,78.08
2018-02-10T20:11:03.309Z,78.09
2018-02-10T20:13:31.956Z,78.28
2018-02-10T20:16:00.975Z,78.17
2018-02-10T20:18:29.532Z,78.06
2018-02-10T20:20:58.040Z,78.11
2018-02-10T20:23:26.801Z,78.04
2018-02-10T20:25:58.244Z,77.96
2018-02-10T20:28:27.568Z,78.12
2018-02-10T20:30:56.737Z,78.52
2018-02-10T20:33:27.690Z,78.17
2018-02-10T20:35:57.086Z,77.96
2018-02-10T20:38:25.680Z,77.84
2018-02-10T20:40:54.487Z,77.81
2018-02-10T20:43:23.549Z,77.74
2018-02-10T20:45:52.147Z,77.83
2018-02-10T20:48:21.130Z,77.97
2018-02-10T20:50:50.375Z,77.83
2018-02-10T20:53:19.074Z,77.80
2018-02-10T20:55:47.977Z,77.87
2018-02-10T20:58:16.978Z,77.76
2018-02-10T21:00:45.721Z,77.91
2018-02-10T21:03:14.210Z,78.03
2018-02-10T21:05:42.912Z,77.62
2018-02-10T21:08:11.537Z,77.75
2018-02-10T21:10:40.054Z,77.79
2018-02-10T21:13:08.528Z,77.96
2018-02-10T21:15:37.400Z,77.63
2018-02-10T21:18:13.071Z,77.76
2018-02-10T21:20:43.318Z,78.04
2018-02-10T21:23:14.465Z,78.02
2018-02-10T21:25:43.880Z,78.23
2018-02-10T21:28:12.425Z,78.26
2018-02-10T21:30:41.376Z,78.35
2018-02-10T21:33:10.237Z,78.35
2018-02-10T21:35:39.107Z,78.55
2018-02-10T21:38:07.783Z,78.41
2018-02-10T21:40:36.483Z,78.46
2018-02-10T21:43:08.186Z,78.64
2018-02-10T21:45:38.657Z,78.61
2018-02-10T21:48:07.361Z,78.89
2018-02-10T21:50:35.908Z,78.62
2018-02-10T21:53:04.716Z,78.46
2018-02-10T21:55:33.728Z,78.70
2018-02-10T21:58:02.588Z,79.21
2018-02-10T22:00:31.340Z,79.07
2018-02-10T22:02:59.920Z,79.02
2018-02-10T22:05:28.468Z,78.96
2018-02-10T22:07:57.176Z,79.27
2018-02-10T22:10:25.820Z,79.33
2018-02-10T22:12:54.545Z,79.11
2018-02-10T22:15:24.049Z,79.18
2018-02-10T22:17:54.540Z,79.40
2018-02-10T22:20:23.826Z,79.33
2018-02-10T22:22:53.548Z,79.32
2018-02-10T22:25:22.288Z,79.58
2018-02-10T22:27:52.256Z,79.53
2018-02-10T22:30:21.424Z,80.16
2018-02-10T22:32:49.926Z,80.62
2018-02-10T22:35:18.519Z,81.28
2018-02-10T22:37:47.232Z,81.27
2018-02-10T22:40:16.550Z,81.33
2018-02-10T22:42:45.072Z,81.86
2018-02-10T22:45:13.890Z,81.67
2018-02-10T22:47:42.598Z,82.03
2018-02-10T22:50:11.248Z,82.11
2018-02-10T22:52:39.729Z,82.02
2018-02-10T22:55:09.059Z,81.97
2018-02-10T22:57:37.693Z,82.18
2018-02-10T23:00:06.777Z,82.89
2018-02-10T23:02:35.472Z,83.11
2018-02-10T23:05:05.273Z,83.04
2018-02-10T23:07:39.253Z,83.15
2018-02-10T23:10:11.943Z,83.27
2018-02-10T23:12:41.229Z,82.88
2018-02-10T23:15:10.900Z,82.84
2018-02-10T23:17:40.749Z,82.78
2018-02-10T23:20:09.357Z,82.86
2018-02-10T23:22:37.943Z,82.60
2018-02-10T23:25:06.668Z,82.47
2018-02-10T23:27:35.801Z,82.33
2018-02-10T23:30:04.766Z,82.38
2018-02-10T23:32:34.032Z,82.26
2018-02-10T23:35:02.845Z,82.14
2018-02-10T23:37:32.493Z,81.87
2018-02-10T23:40:01.084Z,81.99
2018-02-10T23:42:30.288Z,81.95
2018-02-10T23:44:59.503Z,82.17
2018-02-10T23:47:28.040Z,81.85
2018-02-10T23:49:56.725Z,82.13
2018-02-10T23:52:26.514Z,81.83
2018-02-10T23:54:56.793Z,82.07
2018-02-10T23:57:26.584Z,81.96
2018-02-10T23:59:55.068Z,82.23
